createdAt,value
2019-02-04T00:02:13.837Z,16.70
2019-02-04T00:04:40.863Z,14.33
2019-02-04T00:07:08.769Z,16.40
2019-02-04T00:09:35.450Z,14.40
2019-02-04T00:12:02.823Z,13.13
2019-02-04T00:14:29.581Z,17.73
2019-02-04T00:16:56.107Z,16.10
2019-02-04T00:19:22.479Z,13.47
2019-02-04T00:21:49.298Z,15.50
2019-02-04T00:24:16.239Z,14.73
2019-02-04T00:39:42.036Z,15.53
2019-02-04T00:49:04.139Z,15.80
2019-02-04T00:54:39.505Z,15.70
2019-02-04T00:57:05.846Z,18.17
2019-02-04T00:59:32.066Z,18.10
2019-02-04T01:01:58.596Z,17.37
2019-02-04T01:04:24.973Z,16.83
2019-02-04T01:06:52.411Z,13.40
2019-02-04T01:09:18.860Z,17.03
2019-02-04T01:11:45.251Z,16.00
2019-02-04T01:14:11.507Z,15.70
2019-02-04T01:16:37.904Z,16.93
2019-02-04T01:19:04.427Z,10.47
2019-02-04T01:21:30.842Z,18.33
2019-02-04T01:23:57.774Z,14.03
2019-02-04T01:26:24.005Z,13.67
2019-02-04T01:28:50.419Z,19.73
2019-02-04T01:31:16.679Z,16.77
2019-02-04T01:33:42.934Z,20.63
2019-02-04T01:36:09.716Z,14.97
2019-02-04T01:38:36.328Z,16.63
2019-02-04T01:41:02.676Z,15.97
2019-02-04T01:43:29.606Z,15.67
2019-02-04T01:45:55.857Z,14.60
2019-02-04T01:48:22.269Z,14.50
2019-02-04T01:50:48.696Z,15.47
2019-02-04T01:53:14.968Z,19.27
2019-02-04T01:55:41.356Z,17.03
2019-02-04T01:58:08.002Z,15.37
2019-02-04T02:00:35.223Z,15.00
2019-02-04T02:03:01.474Z,20.43
2019-02-04T02:05:27.994Z,16.17
2019-02-04T02:07:54.449Z,14.43
2019-02-04T02:10:22.853Z,14.27
2019-02-04T02:12:49.386Z,15.50
2019-02-04T02:15:24.808Z,15.77
2019-02-04T02:17:51.345Z,15.47
2019-02-04T02:20:23.659Z,11.90
2019-02-04T02:22:49.948Z,14.60
2019-02-04T02:25:16.323Z,14.53
2019-02-04T02:27:43.305Z,13.03
2019-02-04T02:30:13.426Z,15.73
2019-02-04T02:32:39.992Z,13.53
2019-02-04T02:35:06.887Z,11.37
2019-02-04T02:37:33.242Z,11.30
2019-02-04T02:39:59.980Z,13.53
2019-02-04T02:42:26.245Z,11.10
2019-02-04T02:44:52.423Z,16.10
2019-02-04T02:47:18.788Z,14.60
2019-02-04T02:49:45.149Z,12.33
2019-02-04T02:52:11.842Z,12.33
2019-02-04T02:54:38.033Z,13.80
2019-02-04T02:57:05.248Z,11.40
2019-02-04T02:59:31.580Z,12.80
2019-02-04T03:01:57.804Z,13.90
2019-02-04T03:04:24.028Z,17.30
2019-02-04T03:06:50.477Z,16.73
2019-02-04T03:09:16.793Z,15.17
2019-02-04T03:11:43.199Z,13.63
2019-02-04T03:14:09.649Z,14.23
2019-02-04T03:16:35.970Z,17.27
2019-02-04T03:19:02.340Z,18.13
2019-02-04T03:25:05.265Z,10.93
2019-02-04T03:27:31.519Z,13.17
2019-02-04T03:29:58.223Z,15.13
2019-02-04T03:32:24.550Z,15.33
2019-02-04T03:34:50.818Z,12.80
2019-02-04T03:37:17.180Z,11.70
2019-02-04T03:39:43.707Z,15.10
2019-02-04T03:42:09.978Z,12.90
2019-02-04T03:44:36.437Z,11.63
2019-02-04T03:47:02.827Z,11.17
2019-02-04T03:49:29.137Z,15.80
2019-02-04T03:51:55.375Z,16.43
2019-02-04T03:54:21.743Z,18.13
2019-02-04T03:56:48.088Z,15.23
2019-02-04T03:59:14.452Z,13.43
2019-02-04T04:01:40.868Z,14.67
2019-02-04T04:04:07.133Z,15.83
2019-02-04T04:06:33.738Z,12.67
2019-02-04T04:09:00.048Z,11.33
2019-02-04T04:11:26.304Z,12.03
2019-02-04T04:13:53.062Z,15.20
2019-02-04T04:16:19.380Z,12.17
2019-02-04T04:18:45.937Z,14.67
2019-02-04T04:21:12.266Z,15.47
2019-02-04T04:23:38.674Z,11.53
2019-02-04T04:26:04.969Z,10.90
2019-02-04T04:28:31.665Z,10.17
2019-02-04T04:30:58.002Z,9.97
2019-02-04T04:33:24.354Z,13.10
2019-02-04T04:35:50.796Z,12.77
2019-02-04T04:38:18.913Z,13.90
2019-02-04T04:40:45.177Z,11.97
2019-02-04T04:43:11.825Z,11.13
2019-02-04T04:45:38.146Z,15.40
2019-02-04T04:48:04.890Z,9.87
2019-02-04T04:50:33.390Z,14.50
2019-02-04T04:52:59.818Z,9.60
2019-02-04T04:55:26.148Z,18.70
2019-02-04T04:57:53.292Z,14.77
2019-02-04T05:00:26.260Z,11.20
2019-02-04T05:02:52.771Z,12.27
2019-02-04T05:05:19.741Z,12.00
2019-02-04T05:07:46.185Z,9.00
2019-02-04T05:10:15.834Z,17.17
2019-02-04T05:12:42.651Z,10.73
2019-02-04T05:15:12.334Z,15.33
2019-02-04T05:17:38.679Z,17.73
2019-02-04T05:20:08.799Z,16.30
2019-02-04T05:22:35.142Z,11.07
2019-02-04T05:25:01.637Z,10.07
2019-02-04T05:27:28.082Z,10.80
2019-02-04T05:29:54.466Z,11.50
2019-02-04T05:32:20.799Z,16.40
2019-02-04T05:34:47.108Z,12.67
2019-02-04T05:37:13.487Z,9.57
2019-02-04T05:39:39.769Z,12.10
2019-02-04T05:42:06.355Z,15.33
2019-02-04T05:44:33.049Z,18.00
2019-02-04T05:47:03.116Z,12.30
2019-02-04T05:49:29.422Z,13.13
2019-02-04T05:51:56.251Z,13.27
2019-02-04T05:54:23.291Z,18.80
2019-02-04T05:56:49.762Z,15.70
2019-02-04T05:59:16.092Z,16.30
2019-02-04T06:01:42.446Z,21.50
2019-02-04T06:04:08.924Z,13.47
2019-02-04T06:06:35.290Z,14.80
2019-02-04T06:09:01.564Z,17.27
2019-02-04T06:11:28.017Z,18.10
2019-02-04T06:13:55.042Z,19.37
2019-02-04T06:16:21.589Z,19.53
2019-02-04T06:18:48.276Z,14.90
2019-02-04T06:21:14.949Z,14.73
2019-02-04T06:23:41.636Z,20.80
2019-02-04T06:26:08.429Z,16.03
2019-02-04T06:28:35.614Z,15.93
2019-02-04T06:31:02.199Z,19.30
2019-02-04T06:33:28.832Z,18.37
2019-02-04T06:35:55.870Z,21.20
2019-02-04T06:38:22.617Z,17.07
2019-02-04T06:40:49.147Z,19.03
2019-02-04T06:43:15.899Z,23.20
2019-02-04T06:45:42.600Z,20.73
2019-02-04T06:48:09.273Z,18.63
2019-02-04T06:50:35.804Z,17.83
2019-02-04T06:53:02.373Z,20.77
2019-02-04T06:55:33.039Z,18.40
2019-02-04T06:57:59.879Z,19.80
2019-02-04T07:00:26.970Z,19.73
2019-02-04T07:02:54.090Z,18.13
2019-02-04T07:05:20.991Z,17.67
2019-02-04T07:07:47.475Z,22.30
2019-02-04T07:10:17.720Z,23.00
2019-02-04T07:12:44.742Z,21.30
2019-02-04T07:15:11.774Z,20.80
2019-02-04T07:17:39.138Z,22.57
2019-02-04T07:20:09.477Z,20.03
2019-02-04T07:22:36.299Z,23.20
2019-02-04T07:25:05.849Z,19.10
2019-02-04T07:27:32.264Z,23.40
2019-02-04T07:29:58.701Z,16.80
2019-02-04T07:32:25.306Z,20.37
2019-02-04T07:34:52.572Z,17.60
2019-02-04T07:37:19.080Z,19.17
2019-02-04T07:39:45.976Z,19.37
2019-02-04T07:42:13.445Z,22.07
2019-02-04T07:44:39.984Z,20.30
2019-02-04T07:47:06.502Z,20.93
2019-02-04T07:49:35.207Z,23.73
2019-02-04T07:52:01.912Z,19.87
2019-02-04T07:54:28.587Z,20.47
2019-02-04T07:57:01.336Z,28.80
2019-02-04T07:59:27.864Z,20.97
2019-02-04T08:01:54.957Z,22.70
2019-02-04T08:04:21.790Z,22.00
2019-02-04T08:06:48.641Z,20.40
2019-02-04T08:09:15.539Z,23.07
2019-02-04T08:11:42.432Z,19.60
2019-02-04T08:14:09.588Z,19.67
2019-02-04T08:16:36.596Z,23.10
2019-02-04T08:19:03.218Z,22.00
2019-02-04T08:21:31.218Z,19.33
2019-02-04T08:23:57.694Z,24.13
2019-02-04T08:26:24.979Z,19.57
2019-02-04T08:28:52.419Z,23.23
2019-02-04T08:31:19.536Z,23.97
2019-02-04T08:33:46.656Z,16.87
2019-02-04T08:36:13.988Z,18.10
2019-02-04T08:42:16.079Z,22.33
2019-02-04T08:44:42.819Z,18.33
2019-02-04T08:47:09.351Z,15.97
2019-02-04T08:49:35.894Z,19.63
2019-02-04T08:52:04.315Z,15.47
2019-02-04T08:54:31.522Z,31.83
2019-02-04T08:57:04.716Z,16.50
2019-02-04T08:59:32.037Z,13.07
2019-02-04T09:01:58.751Z,19.27
2019-02-04T09:04:25.669Z,14.43
2019-02-04T09:06:52.310Z,13.83
2019-02-04T09:09:20.555Z,17.80
2019-02-04T09:11:47.191Z,20.27
2019-02-04T09:14:13.931Z,14.70
2019-02-04T09:16:40.558Z,14.83
2019-02-04T09:19:07.185Z,16.63
2019-02-04T09:21:33.854Z,16.00
2019-02-04T09:24:00.468Z,15.73
2019-02-04T09:26:27.227Z,13.00
2019-02-04T09:28:53.998Z,14.50
2019-02-04T09:31:20.420Z,16.00
2019-02-04T09:33:46.948Z,14.23
2019-02-04T09:36:13.228Z,15.20
2019-02-04T09:38:39.871Z,17.27
2019-02-04T09:41:06.436Z,11.90
2019-02-04T09:43:32.693Z,13.10
2019-02-04T09:45:59.385Z,13.20
2019-02-04T09:48:25.761Z,9.53
2019-02-04T09:50:52.231Z,15.03
2019-02-04T09:53:18.857Z,12.30
2019-02-04T09:55:45.243Z,11.10
2019-02-04T09:58:11.569Z,13.77
2019-02-04T10:00:37.896Z,11.40
2019-02-04T10:03:05.772Z,10.90
2019-02-04T10:05:32.437Z,13.43
2019-02-04T10:07:59.361Z,13.63
2019-02-04T10:10:27.986Z,8.97
2019-02-04T10:12:55.431Z,11.07
2019-02-04T10:15:36.301Z,14.37
2019-02-04T10:18:03.689Z,11.83
2019-02-04T10:20:34.043Z,13.03
2019-02-04T10:22:58.840Z,15.67
2019-02-04T10:25:33.878Z,10.63
2019-02-04T10:28:00.549Z,18.00
2019-02-04T10:30:27.533Z,9.47
2019-02-04T10:32:54.739Z,12.63
2019-02-04T10:35:21.467Z,13.00
2019-02-04T10:37:49.760Z,13.60
2019-02-04T10:40:19.419Z,14.10
2019-02-04T10:42:45.887Z,12.80
2019-02-04T10:45:14.186Z,12.60
2019-02-04T10:47:40.731Z,13.63
2019-02-04T10:50:16.294Z,10.50
2019-02-04T10:52:43.087Z,12.37
2019-02-04T10:55:10.061Z,11.53
2019-02-04T10:57:40.624Z,14.03
2019-02-04T11:00:08.556Z,12.80
2019-02-04T11:02:35.061Z,10.47
2019-02-04T11:05:01.410Z,11.50
2019-02-04T11:07:27.754Z,11.10
2019-02-04T11:09:54.545Z,13.37
2019-02-04T11:12:20.957Z,15.93
2019-02-04T11:14:47.244Z,13.20
2019-02-04T11:17:13.742Z,10.70
2019-02-04T11:19:40.172Z,14.30
2019-02-04T11:22:06.687Z,13.77
2019-02-04T11:24:33.162Z,13.27
2019-02-04T11:26:59.709Z,16.13
2019-02-04T11:29:26.606Z,14.87
2019-02-04T11:31:52.923Z,14.27
2019-02-04T11:34:19.437Z,14.00
2019-02-04T11:36:45.812Z,17.30
2019-02-04T11:39:12.365Z,16.03
2019-02-04T11:41:38.832Z,13.37
2019-02-04T11:44:05.420Z,16.73
2019-02-04T11:46:31.739Z,14.43
2019-02-04T11:49:04.525Z,13.77
2019-02-04T11:51:31.164Z,14.43
2019-02-04T11:53:57.614Z,15.33
2019-02-04T11:56:23.977Z,15.00
2019-02-04T11:58:50.331Z,17.90
2019-02-04T12:01:16.786Z,18.73
2019-02-04T12:03:49.472Z,16.30
2019-02-04T12:06:17.593Z,14.33
2019-02-04T12:08:51.107Z,18.50
2019-02-04T12:11:17.787Z,19.43
2019-02-04T12:13:44.180Z,15.80
2019-02-04T12:16:11.221Z,17.97
2019-02-04T12:18:37.777Z,25.70
2019-02-04T12:21:04.775Z,20.43
2019-02-04T12:27:07.316Z,21.50
2019-02-04T12:29:34.090Z,17.03
2019-02-04T12:32:01.053Z,19.23
2019-02-04T12:34:27.460Z,21.00
2019-02-04T12:36:53.788Z,19.83
2019-02-04T12:39:21.561Z,21.83
2019-02-04T12:41:50.625Z,19.70
2019-02-04T12:44:16.085Z,21.27
2019-02-04T12:46:42.520Z,20.63
2019-02-04T12:49:08.828Z,22.47
2019-02-04T12:51:35.516Z,21.37
2019-02-04T12:54:01.835Z,22.97
2019-02-04T12:56:28.088Z,21.80
2019-02-04T12:58:55.889Z,20.30
2019-02-04T13:01:22.327Z,21.97
2019-02-04T13:03:48.699Z,19.90
2019-02-04T13:06:15.039Z,18.77
2019-02-04T13:08:41.547Z,22.77
2019-02-04T13:11:08.074Z,22.10
2019-02-04T13:13:34.893Z,23.03
2019-02-04T13:16:01.209Z,28.73
2019-02-04T13:18:28.345Z,22.87
2019-02-04T13:20:54.872Z,27.40
2019-02-04T13:23:21.245Z,22.77
2019-02-04T13:25:47.533Z,21.70
2019-02-04T13:28:14.594Z,24.77
2019-02-04T13:30:41.123Z,26.60
2019-02-04T13:33:07.422Z,25.63
2019-02-04T13:38:34.809Z,20.70
2019-02-04T13:41:08.135Z,22.70
2019-02-04T13:43:29.612Z,24.03
2019-02-04T13:45:57.249Z,22.20
2019-02-04T13:48:23.566Z,23.10
2019-02-04T13:50:50.014Z,20.70
2019-02-04T13:53:16.500Z,21.37
2019-02-04T13:55:43.092Z,22.60
2019-02-04T13:58:09.530Z,23.20
2019-02-04T14:00:36.485Z,22.83
2019-02-04T14:03:04.484Z,20.43
2019-02-04T14:05:31.750Z,23.30
2019-02-04T14:08:00.409Z,22.03
2019-02-04T14:10:35.687Z,25.03
2019-02-04T14:13:03.698Z,24.10
2019-02-04T14:15:31.119Z,22.50
2019-02-04T14:17:57.710Z,24.63
2019-02-04T14:20:25.374Z,26.03
2019-02-04T14:22:53.431Z,21.10
2019-02-04T14:25:20.187Z,20.83
2019-02-04T14:27:46.705Z,21.97
2019-02-04T14:30:16.533Z,24.77
2019-02-04T14:32:42.909Z,20.73
2019-02-04T14:35:09.646Z,20.10
2019-02-04T14:37:36.351Z,18.80
2019-02-04T14:40:18.049Z,19.50
2019-02-04T14:42:34.518Z,19.20
2019-02-04T14:45:04.386Z,18.67
2019-02-04T14:47:34.496Z,19.07
2019-02-04T14:50:07.956Z,19.13
2019-02-04T14:52:37.993Z,17.20
2019-02-04T14:55:24.795Z,17.13
2019-02-04T14:58:19.484Z,18.60
2019-02-04T15:01:18.491Z,22.57
2019-02-04T15:04:09.614Z,17.13
2019-02-04T15:06:56.618Z,24.10
2019-02-04T15:09:43.316Z,21.63
2019-02-04T15:12:37.099Z,23.57
2019-02-04T15:15:10.665Z,18.23
2019-02-04T15:17:40.848Z,17.93
2019-02-04T15:20:10.908Z,23.00
2019-02-04T15:22:50.246Z,19.47
2019-02-04T15:25:46.760Z,20.97
2019-02-04T15:28:29.093Z,23.43
2019-02-04T15:31:35.388Z,17.70
2019-02-04T15:34:11.320Z,18.73
2019-02-04T15:36:50.058Z,18.77
2019-02-04T15:39:35.339Z,23.00
2019-02-04T15:42:08.688Z,22.23
2019-02-04T15:44:44.648Z,18.93
2019-02-04T15:47:39.284Z,20.00
2019-02-04T15:50:12.698Z,20.80
2019-02-04T15:52:45.632Z,19.30
2019-02-04T15:55:11.603Z,17.83
2019-02-04T15:57:38.032Z,19.53
2019-02-04T16:00:08.105Z,21.63
2019-02-04T16:02:34.476Z,14.50
2019-02-04T16:05:01.109Z,17.03
2019-02-04T16:07:27.866Z,15.93
2019-02-04T16:09:54.894Z,17.63
2019-02-04T16:12:21.635Z,18.97
2019-02-04T16:14:48.311Z,16.97
2019-02-04T16:17:14.753Z,15.50
2019-02-04T16:19:41.035Z,16.10
2019-02-04T16:22:07.888Z,15.53
2019-02-04T16:24:34.469Z,19.30
2019-02-04T16:27:00.965Z,16.33
2019-02-04T16:29:28.003Z,17.07
2019-02-04T16:31:54.431Z,16.90
2019-02-04T16:34:23.948Z,17.20
2019-02-04T16:36:49.558Z,17.53
2019-02-04T16:39:15.906Z,15.90
2019-02-04T16:41:42.234Z,18.50
2019-02-04T16:44:09.049Z,17.60
2019-02-04T16:46:35.933Z,16.00
2019-02-04T16:49:02.837Z,16.27
2019-02-04T16:51:29.394Z,19.33
2019-02-04T16:53:56.096Z,18.60
2019-02-04T16:56:22.787Z,15.67
2019-02-04T16:58:49.247Z,19.83
2019-02-04T17:01:15.956Z,18.03
2019-02-04T17:03:42.166Z,13.87
2019-02-04T17:06:09.238Z,15.50
2019-02-04T17:08:35.679Z,17.80
2019-02-04T17:11:01.911Z,13.83
2019-02-04T17:17:05.550Z,16.33
2019-02-04T17:20:09.950Z,20.37
2019-02-04T17:22:23.901Z,17.97
2019-02-04T17:25:09.434Z,14.93
2019-02-04T17:27:35.972Z,16.07
2019-02-04T17:30:06.502Z,15.50
2019-02-04T17:32:33.345Z,19.33
2019-02-04T17:34:59.551Z,16.83
2019-02-04T17:37:25.950Z,15.50
2019-02-04T17:39:52.340Z,18.00
2019-02-04T17:42:19.288Z,16.17
2019-02-04T17:44:45.821Z,14.87
2019-02-04T17:47:12.454Z,20.07
2019-02-04T17:49:39.121Z,16.00
2019-02-04T17:52:06.694Z,17.70
2019-02-04T17:54:33.009Z,15.43
2019-02-04T17:57:00.083Z,17.70
2019-02-04T17:59:27.381Z,13.70
2019-02-04T18:01:54.443Z,14.57
2019-02-04T18:04:21.506Z,14.60
2019-02-04T18:06:48.035Z,16.23
2019-02-04T18:09:14.377Z,17.90
2019-02-04T18:11:41.022Z,15.43
2019-02-04T18:14:07.756Z,14.73
2019-02-04T18:16:47.094Z,11.80
2019-02-04T18:19:13.186Z,16.53
2019-02-04T18:21:43.871Z,14.13
2019-02-04T18:24:10.643Z,15.87
2019-02-04T18:26:37.221Z,13.70
2019-02-04T18:29:04.077Z,14.20
2019-02-04T18:31:33.581Z,15.03
2019-02-04T18:33:58.825Z,15.63
2019-02-04T18:36:25.526Z,14.30
2019-02-04T18:38:52.449Z,15.93
2019-02-04T18:41:21.211Z,15.50
2019-02-04T18:43:47.465Z,15.60
2019-02-04T18:46:14.172Z,14.10
2019-02-04T18:48:41.585Z,15.83
2019-02-04T18:51:07.944Z,14.60
2019-02-04T18:53:34.433Z,12.53
2019-02-04T18:59:24.348Z,16.20
2019-02-04T19:01:50.921Z,15.63
2019-02-04T19:04:17.321Z,14.67
2019-02-04T19:06:47.806Z,14.53
2019-02-04T19:09:12.574Z,14.47
2019-02-04T19:11:39.007Z,17.10
2019-02-04T19:17:41.048Z,14.43
2019-02-04T19:23:18.705Z,17.87
2019-02-04T19:29:19.939Z,14.03
2019-02-04T19:31:46.557Z,14.60
2019-02-04T19:34:13.292Z,12.80
2019-02-04T19:36:45.361Z,14.27
2019-02-04T19:39:20.851Z,14.93
2019-02-04T19:41:54.256Z,11.47
2019-02-04T19:47:54.040Z,13.03
2019-02-04T19:50:38.429Z,14.07
2019-02-04T19:56:16.371Z,12.37
2019-02-04T19:58:43.103Z,10.90
2019-02-04T20:04:35.065Z,13.67
2019-02-04T20:10:36.552Z,10.63
2019-02-04T20:16:27.731Z,13.27
2019-02-04T20:18:55.024Z,13.93
2019-02-04T20:21:21.509Z,12.47
2019-02-04T20:27:27.209Z,13.20
2019-02-04T20:33:17.531Z,17.50
2019-02-04T20:35:44.557Z,14.03
2019-02-04T20:38:10.844Z,11.87
2019-02-04T20:40:37.335Z,11.67
2019-02-04T20:43:05.021Z,13.17
2019-02-04T20:45:31.721Z,14.90
2019-02-04T20:51:10.622Z,11.80
2019-02-04T20:53:36.998Z,13.20
2019-02-04T20:56:04.734Z,16.20
2019-02-04T21:01:53.884Z,10.70
2019-02-04T21:04:33.935Z,11.17
2019-02-04T21:07:01.702Z,15.93
2019-02-04T21:13:03.684Z,13.27
2019-02-04T21:15:29.961Z,13.50
2019-02-04T21:17:56.188Z,11.47
2019-02-04T21:24:15.645Z,13.30
2019-02-04T21:26:48.839Z,11.80
2019-02-04T21:29:19.063Z,12.33
2019-02-04T21:31:46.120Z,12.73
2019-02-04T21:34:13.260Z,10.90
2019-02-04T21:36:40.638Z,12.47
2019-02-04T21:39:15.236Z,11.83
2019-02-04T21:41:42.359Z,11.37
2019-02-04T21:44:08.871Z,14.00
2019-02-04T21:46:35.193Z,12.90
2019-02-04T21:49:01.851Z,10.70
2019-02-04T21:51:30.015Z,11.80
2019-02-04T21:54:13.908Z,12.90
2019-02-04T21:59:40.420Z,11.37
2019-02-04T22:02:08.486Z,11.63
2019-02-04T22:04:35.208Z,12.00
2019-02-04T22:07:01.536Z,10.90
2019-02-04T22:09:27.710Z,11.00
2019-02-04T22:11:53.980Z,14.10
2019-02-04T22:14:20.546Z,13.47
2019-02-04T22:16:48.802Z,13.20
2019-02-04T22:19:15.444Z,11.73
2019-02-04T22:21:41.878Z,13.93
2019-02-04T22:24:13.081Z,10.00
2019-02-04T22:26:39.404Z,12.90
2019-02-04T22:29:08.240Z,16.23
2019-02-04T22:31:34.601Z,14.57
2019-02-04T22:34:01.626Z,11.60
2019-02-04T22:36:28.347Z,10.77
2019-02-04T22:38:54.618Z,11.67
2019-02-04T22:41:20.922Z,12.07
2019-02-04T22:43:47.288Z,12.40
2019-02-04T22:46:13.608Z,13.93
2019-02-04T22:48:40.144Z,12.30
2019-02-04T22:51:06.376Z,9.80
2019-02-04T22:53:32.633Z,10.90
2019-02-04T22:55:59.394Z,11.90
2019-02-04T22:58:25.557Z,13.30
2019-02-04T23:00:55.577Z,10.50
2019-02-04T23:06:34.073Z,12.77
2019-02-04T23:09:03.003Z,12.10
2019-02-04T23:11:29.319Z,20.60
2019-02-04T23:13:55.668Z,11.97
2019-02-04T23:16:22.085Z,14.00
2019-02-04T23:18:48.408Z,13.37
2019-02-04T23:21:14.704Z,11.00
2019-02-04T23:23:40.889Z,14.33
2019-02-04T23:26:08.208Z,14.20
2019-02-04T23:28:34.581Z,12.97
2019-02-04T23:31:00.834Z,11.73
2019-02-04T23:33:34.187Z,15.27
2019-02-04T23:35:55.625Z,12.30
2019-02-04T23:38:21.940Z,16.70
2019-02-04T23:40:48.320Z,12.27
2019-02-04T23:43:14.515Z,10.83
2019-02-04T23:45:41.154Z,12.53
2019-02-04T23:48:07.446Z,10.93
2019-02-04T23:50:33.953Z,11.70
2019-02-04T23:53:00.165Z,12.47
2019-02-04T23:55:26.457Z,12.43
2019-02-04T23:57:52.698Z,13.93
